sensor_id;sensor_type;location;lat;lon;timestamp;temperature;humidity
6863;DHT22;3470;48.738;9.616;2023-07-13T17:30:24;24.70;61.80
6863;DHT22;3470;48.738;9.616;2023-07-13T17:32:50;24.50;61.10
6863;DHT22;3470;48.738;9.616;2023-07-13T17:35:26;24.50;61.90
6863;DHT22;3470;48.738;9.616;2023-07-13T17:37:54;24.50;62.60
6863;DHT22;3470;48.738;9.616;2023-07-13T17:40:20;24.50;62.00
6863;DHT22;3470;48.738;9.616;2023-07-13T17:45:28;24.30;62.50
6863;DHT22;3470;48.738;9.616;2023-07-13T17:47:55;24.20;62.00
6863;DHT22;3470;48.738;9.616;2023-07-13T17:50:29;24.10;62.70
6863;DHT22;3470;48.738;9.616;2023-07-13T17:55:32;24.00;62.90
6863;DHT22;3470;48.738;9.616;2023-07-13T17:57:59;23.80;62.60
6863;DHT22;3470;48.738;9.616;2023-07-13T18:00:25;23.70;63.50
6863;DHT22;3470;48.738;9.616;2023-07-13T18:06:08;23.50;64.10
6863;DHT22;3470;48.738;9.616;2023-07-13T18:08:35;23.40;64.70
6863;DHT22;3470;48.738;9.616;2023-07-13T18:11:01;23.30;64.50
6863;DHT22;3470;48.738;9.616;2023-07-13T18:13:28;23.20;65.20
6863;DHT22;3470;48.738;9.616;2023-07-13T18:15:56;23.10;65.80
6863;DHT22;3470;48.738;9.616;2023-07-13T18:18:25;23.00;66.00
6863;DHT22;3470;48.738;9.616;2023-07-13T18:20:51;22.90;66.60
6863;DHT22;3470;48.738;9.616;2023-07-13T18:23:22;22.80;66.60
6863;DHT22;3470;48.738;9.616;2023-07-13T18:25:50;22.70;66.20
6863;DHT22;3470;48.738;9.616;2023-07-13T18:28:18;22.70;66.60
6863;DHT22;3470;48.738;9.616;2023-07-13T18:30:47;22.60;67.10
6863;DHT22;3470;48.738;9.616;2023-07-13T18:33:25;22.50;67.40
6863;DHT22;3470;48.738;9.616;2023-07-13T18:35:52;22.40;67.40
6863;DHT22;3470;48.738;9.616;2023-07-13T18:38:23;22.20;68.20
6863;DHT22;3470;48.738;9.616;2023-07-13T18:40:52;22.10;67.90
6863;DHT22;3470;48.738;9.616;2023-07-13T18:43:21;22.10;68.50
6863;DHT22;3470;48.738;9.616;2023-07-13T18:45:50;21.90;68.80
6863;DHT22;3470;48.738;9.616;2023-07-13T18:48:20;21.90;69.50
6863;DHT22;3470;48.738;9.616;2023-07-13T18:50:48;21.80;69.80
6863;DHT22;3470;48.738;9.616;2023-07-13T18:53:15;21.70;69.70
6863;DHT22;3470;48.738;9.616;2023-07-13T18:55:42;21.60;70.50
6863;DHT22;3470;48.738;9.616;2023-07-13T18:58:07;21.50;70.50
6863;DHT22;3470;48.738;9.616;2023-07-13T19:00:33;21.40;70.40
6863;DHT22;3470;48.738;9.616;2023-07-13T19:03:00;21.30;70.90
6863;DHT22;3470;48.738;9.616;2023-07-13T19:05:29;21.20;71.20
6863;DHT22;3470;48.738;9.616;2023-07-13T19:07:55;21.10;71.90
6863;DHT22;3470;48.738;9.616;2023-07-13T19:10:25;21.00;72.50
6863;DHT22;3470;48.738;9.616;2023-07-13T19:12:58;20.90;73.00
6863;DHT22;3470;48.738;9.616;2023-07-13T19:15:30;20.80;72.90
6863;DHT22;3470;48.738;9.616;2023-07-13T19:18:00;20.70;73.40
6863;DHT22;3470;48.738;9.616;2023-07-13T19:20:27;20.60;73.70
6863;DHT22;3470;48.738;9.616;2023-07-13T19:23:04;20.60;73.80
6863;DHT22;3470;48.738;9.616;2023-07-13T19:25:32;20.60;73.90
6863;DHT22;3470;48.738;9.616;2023-07-13T19:28:23;20.50;74.40
6863;DHT22;3470;48.738;9.616;2023-07-13T19:30:49;20.40;74.60
6863;DHT22;3470;48.738;9.616;2023-07-13T19:33:16;20.40;75.10
6863;DHT22;3470;48.738;9.616;2023-07-13T19:35:42;20.20;75.70
6863;DHT22;3470;48.738;9.616;2023-07-13T19:38:16;20.10;75.80
6863;DHT22;3470;48.738;9.616;2023-07-13T19:40:42;19.90;76.40
6863;DHT22;3470;48.738;9.616;2023-07-13T19:43:11;19.90;77.20
6863;DHT22;3470;48.738;9.616;2023-07-13T19:45:37;19.70;77.50
6863;DHT22;3470;48.738;9.616;2023-07-13T19:48:03;19.60;78.20
6863;DHT22;3470;48.738;9.616;2023-07-13T19:50:29;19.50;78.10
6863;DHT22;3470;48.738;9.616;2023-07-13T19:52:55;19.40;78.50
6863;DHT22;3470;48.738;9.616;2023-07-13T19:55:24;19.30;78.80
6863;DHT22;3470;48.738;9.616;2023-07-13T19:57:51;19.30;78.90
6863;DHT22;3470;48.738;9.616;2023-07-13T20:00:25;19.20;79.20
6863;DHT22;3470;48.738;9.616;2023-07-13T20:02:51;19.20;80.60
6863;DHT22;3470;48.738;9.616;2023-07-13T20:05:19;19.00;80.30
6863;DHT22;3470;48.738;9.616;2023-07-13T20:07:46;18.80;80.80
6863;DHT22;3470;48.738;9.616;2023-07-13T20:10:19;18.60;82.20
6863;DHT22;3470;48.738;9.616;2023-07-13T20:12:44;18.40;83.20
6863;DHT22;3470;48.738;9.616;2023-07-13T20:15:16;18.30;84.30
6863;DHT22;3470;48.738;9.616;2023-07-13T20:17:43;18.10;85.10
6863;DHT22;3470;48.738;9.616;2023-07-13T20:22:41;17.90;86.60
6863;DHT22;3470;48.738;9.616;2023-07-13T20:25:16;17.80;87.40
6863;DHT22;3470;48.738;9.616;2023-07-13T20:27:42;17.80;87.90
6863;DHT22;3470;48.738;9.616;2023-07-13T20:30:08;17.70;86.80
6863;DHT22;3470;48.738;9.616;2023-07-13T20:32:36;17.70;87.40
6863;DHT22;3470;48.738;9.616;2023-07-13T20:37:41;17.70;86.90
6863;DHT22;3470;48.738;9.616;2023-07-13T20:40:15;17.70;86.50
6863;DHT22;3470;48.738;9.616;2023-07-13T20:42:41;17.70;87.10
6863;DHT22;3470;48.738;9.616;2023-07-13T20:45:07;17.60;86.00
6863;DHT22;3470;48.738;9.616;2023-07-13T20:47:35;17.60;86.50
6863;DHT22;3470;48.738;9.616;2023-07-13T20:50:01;17.60;87.20
6863;DHT22;3470;48.738;9.616;2023-07-13T20:52:27;17.50;88.00
6863;DHT22;3470;48.738;9.616;2023-07-13T20:54:52;17.40;88.00
6863;DHT22;3470;48.738;9.616;2023-07-13T20:57:19;17.30;88.40
6863;DHT22;3470;48.738;9.616;2023-07-13T20:59:45;17.30;90.00
6863;DHT22;3470;48.738;9.616;2023-07-13T21:02:30;17.20;90.20
6863;DHT22;3470;48.738;9.616;2023-07-13T21:04:56;17.10;89.80
6863;DHT22;3470;48.738;9.616;2023-07-13T21:07:22;17.10;90.40
6863;DHT22;3470;48.738;9.616;2023-07-13T21:09:48;17.00;91.10
6863;DHT22;3470;48.738;9.616;2023-07-13T21:12:14;16.90;91.50
6863;DHT22;3470;48.738;9.616;2023-07-13T21:14:39;16.80;91.70
6863;DHT22;3470;48.738;9.616;2023-07-13T21:17:08;16.70;91.10
6863;DHT22;3470;48.738;9.616;2023-07-13T21:19:34;16.70;91.80
6863;DHT22;3470;48.738;9.616;2023-07-13T21:22:00;16.60;91.80
6863;DHT22;3470;48.738;9.616;2023-07-13T21:24:25;16.60;91.30
6863;DHT22;3470;48.738;9.616;2023-07-13T21:26:51;16.50;91.50
6863;DHT22;3470;48.738;9.616;2023-07-13T21:29:17;16.40;91.40
6863;DHT22;3470;48.738;9.616;2023-07-13T21:31:42;16.40;91.20
6863;DHT22;3470;48.738;9.616;2023-07-13T21:34:17;16.40;91.00
6863;DHT22;3470;48.738;9.616;2023-07-13T21:36:43;16.40;90.70
6863;DHT22;3470;48.738;9.616;2023-07-13T21:39:15;16.40;91.30
6863;DHT22;3470;48.738;9.616;2023-07-13T21:41:42;16.40;91.60
6863;DHT22;3470;48.738;9.616;2023-07-13T21:46:43;16.30;91.60
6863;DHT22;3470;48.738;9.616;2023-07-13T21:49:08;16.10;91.70
6863;DHT22;3470;48.738;9.616;2023-07-13T21:51:34;16.20;92.00
6863;DHT22;3470;48.738;9.616;2023-07-13T21:54:00;16.00;92.40
6863;DHT22;3470;48.738;9.616;2023-07-13T21:56:26;15.90;92.70
6863;DHT22;3470;48.738;9.616;2023-07-13T21:58:52;15.90;92.30
6863;DHT22;3470;48.738;9.616;2023-07-13T22:01:23;15.90;93.00
6863;DHT22;3470;48.738;9.616;2023-07-13T22:03:57;16.00;93.20
6863;DHT22;3470;48.738;9.616;2023-07-13T22:06:26;15.90;92.90
6863;DHT22;3470;48.738;9.616;2023-07-13T22:08:52;16.00;92.70
6863;DHT22;3470;48.738;9.616;2023-07-13T22:11:22;16.00;93.20
6863;DHT22;3470;48.738;9.616;2023-07-13T22:13:49;16.00;93.40
6863;DHT22;3470;48.738;9.616;2023-07-13T22:16:22;16.00;92.70
6863;DHT22;3470;48.738;9.616;2023-07-13T22:18:51;16.00;93.40
6863;DHT22;3470;48.738;9.616;2023-07-13T22:21:18;15.90;93.30
6863;DHT22;3470;48.738;9.616;2023-07-13T22:23:44;15.90;93.00
6863;DHT22;3470;48.738;9.616;2023-07-13T22:26:22;15.90;92.90
6863;DHT22;3470;48.738;9.616;2023-07-13T22:29:05;15.90;92.80
6863;DHT22;3470;48.738;9.616;2023-07-13T22:31:34;15.80;93.60
6863;DHT22;3470;48.738;9.616;2023-07-13T22:34:00;15.80;94.00
6863;DHT22;3470;48.738;9.616;2023-07-13T22:36:26;15.80;93.70
6863;DHT22;3470;48.738;9.616;2023-07-13T22:38:52;15.80;93.30
6863;DHT22;3470;48.738;9.616;2023-07-13T22:41:21;15.80;93.00
6863;DHT22;3470;48.738;9.616;2023-07-13T22:43:47;15.80;93.50
